Time;durP1;ratioP1;P1;durP2;ratioP2;P2;SDS_P1;SDS_P2;PMS_P1;PMS_P2;Temp;Humidity;BMP_temperature;BMP_pressure;BME280_temperature;BME280_humidity;BME280_pressure;Samples;Min_cycle;Max_cycle;Signal;HPM_P1;HPM_P2
2024/04/19 00:01:39;0.00;0.00;0.62;0.00;0.00;0.62;2.40;1.00;;;23.80;21.00;;;;;;2047883;62;20511;-65
2024/04/19 00:04:24;0.00;0.00;0.62;0.00;0.00;0.62;2.00;0.90;;;23.80;21.00;;;;;;2052175;62;20516;-65
2024/04/19 00:07:08;0.00;0.00;0.62;0.00;0.00;0.62;1.80;0.90;;;23.80;21.00;;;;;;2052216;62;20505;-64
2024/04/19 00:10:02;0.00;0.00;0.62;0.00;0.00;0.62;2.90;0.90;;;23.80;21.00;;;;;;2051301;62;20520;-66
2024/04/19 00:12:46;0.00;0.00;0.62;0.00;0.00;0.62;2.37;1.10;;;23.80;21.10;;;;;;2051404;62;20551;-66
2024/04/19 00:15:34;0.00;0.00;0.62;0.00;0.00;0.62;2.63;1.03;;;23.80;21.00;;;;;;2047280;62;20464;-64
2024/04/19 00:18:18;0.00;0.00;0.62;0.00;0.00;0.62;2.37;1.00;;;23.80;21.00;;;;;;2051552;62;20466;-64
2024/04/19 00:21:04;0.00;0.00;0.62;0.00;0.00;0.62;2.10;1.00;;;23.80;21.00;;;;;;2052066;62;20450;-64
2024/04/19 00:23:49;0.00;0.00;0.62;0.00;0.00;0.62;2.27;0.93;;;23.80;21.00;;;;;;2051708;62;20532;-64
2024/04/19 00:26:33;0.00;0.00;0.62;0.00;0.00;0.62;2.70;1.13;;;23.80;21.00;;;;;;2052059;62;20455;-65
2024/04/19 00:29:18;0.00;0.00;0.62;0.00;0.00;0.62;2.20;1.07;;;23.70;20.90;;;;;;2051835;62;20471;-65
2024/04/19 00:32:06;0.00;0.00;0.62;0.00;0.00;0.62;1.97;1.10;;;23.70;20.90;;;;;;2051474;62;21040;-65
2024/04/19 00:34:51;0.00;0.00;0.62;0.00;0.00;0.62;2.23;1.10;;;23.70;20.90;;;;;;2052339;62;20520;-64
2024/04/19 00:37:35;0.00;0.00;0.62;0.00;0.00;0.62;1.87;1.10;;;23.70;20.90;;;;;;2052099;62;20516;-65
2024/04/19 00:40:40;0.00;0.00;0.62;0.00;0.00;0.62;2.27;0.93;;;23.70;20.90;;;;;;2051833;62;20470;-64
2024/04/19 00:43:25;0.00;0.00;0.62;0.00;0.00;0.62;3.30;1.20;;;23.70;20.90;;;;;;2052455;62;20533;-64
2024/04/19 00:46:09;0.00;0.00;0.62;0.00;0.00;0.62;3.33;1.27;;;23.70;20.90;;;;;;2052113;62;20474;-64
2024/04/19 00:48:57;0.00;0.00;0.62;0.00;0.00;0.62;2.50;0.90;;;23.70;20.90;;;;;;2051887;62;20459;-65
2024/04/19 00:51:42;0.00;0.00;0.62;0.00;0.00;0.62;1.80;1.10;;;23.70;20.90;;;;;;2052083;62;20918;-65
2024/04/19 00:54:27;0.00;0.00;0.62;0.00;0.00;0.62;2.30;1.00;;;23.70;20.90;;;;;;2051492;62;20463;-65
2024/04/19 00:57:12;0.00;0.00;0.62;0.00;0.00;0.62;1.93;1.00;;;23.70;20.90;;;;;;2052207;62;20525;-65
2024/04/19 00:59:57;0.00;0.00;0.62;0.00;0.00;0.62;2.80;1.20;;;23.70;20.80;;;;;;2052007;62;20467;-66
2024/04/19 01:02:42;0.00;0.00;0.62;0.00;0.00;0.62;1.70;0.93;;;23.70;20.90;;;;;;2051953;62;20885;-64
2024/04/19 01:05:42;0.00;0.00;0.62;0.00;0.00;0.62;3.73;1.50;;;23.70;20.80;;;;;;2052220;62;20455;-65
2024/04/19 01:08:45;0.00;0.00;0.62;0.00;0.00;0.62;2.47;1.00;;;23.70;20.80;;;;;;2051279;62;20470;-64
2024/04/19 01:11:46;0.00;0.00;0.62;0.00;0.00;0.62;4.07;1.10;;;23.70;20.80;;;;;;2051566;62;20470;-64
2024/04/19 01:14:31;0.00;0.00;0.62;0.00;0.00;0.62;1.87;1.10;;;23.60;20.70;;;;;;2052310;62;21060;-64
2024/04/19 01:17:16;0.00;0.00;0.62;0.00;0.00;0.62;1.90;0.87;;;23.60;20.70;;;;;;2051370;62;21042;-64
2024/04/19 01:20:00;0.00;0.00;0.62;0.00;0.00;0.62;2.30;1.10;;;23.70;20.70;;;;;;2051882;62;20867;-64
2024/04/19 01:23:07;0.00;0.00;0.62;0.00;0.00;0.62;2.63;1.10;;;23.60;20.70;;;;;;2051567;62;21019;-64
2024/04/19 01:25:53;0.00;0.00;0.62;0.00;0.00;0.62;2.53;1.17;;;23.60;20.70;;;;;;2047753;62;21034;-64
2024/04/19 01:28:40;0.00;0.00;0.62;0.00;0.00;0.62;3.17;1.10;;;23.60;20.70;;;;;;2052070;62;21066;-65
2024/04/19 01:31:25;0.00;0.00;0.62;0.00;0.00;0.62;2.63;1.20;;;23.60;20.60;;;;;;2051338;62;20463;-64
2024/04/19 01:34:09;0.00;0.00;0.62;0.00;0.00;0.62;2.30;1.20;;;23.60;20.70;;;;;;2052108;62;20487;-64
2024/04/19 01:36:54;0.00;0.00;0.62;0.00;0.00;0.62;3.00;1.30;;;23.60;20.60;;;;;;2051635;62;20475;-64
2024/04/19 01:39:39;0.00;0.00;0.62;0.00;0.00;0.62;1.97;0.90;;;23.60;20.60;;;;;;2051728;62;21098;-64
2024/04/19 01:42:23;0.00;0.00;0.62;0.00;0.00;0.62;2.60;1.00;;;23.60;20.60;;;;;;2052171;62;20470;-65
2024/04/19 01:45:22;0.00;0.00;0.62;0.00;0.00;0.62;2.00;0.93;;;23.60;20.60;;;;;;2049720;62;20479;-64
2024/04/19 01:48:07;0.00;0.00;0.62;0.00;0.00;0.62;3.83;1.43;;;23.60;20.60;;;;;;2043827;62;21020;-64
2024/04/19 01:50:52;0.00;0.00;0.62;0.00;0.00;0.62;1.80;0.80;;;23.60;20.60;;;;;;2051348;62;20470;-64
2024/04/19 01:53:37;0.00;0.00;0.62;0.00;0.00;0.62;2.20;1.10;;;23.60;21.00;;;;;;2051219;62;20471;-64
2024/04/19 01:56:21;0.00;0.00;0.62;0.00;0.00;0.62;2.03;1.07;;;23.60;20.50;;;;;;2051803;62;20458;-65
2024/04/19 01:59:06;0.00;0.00;0.62;0.00;0.00;0.62;2.50;1.47;;;23.60;20.50;;;;;;2051411;62;20466;-65
2024/04/19 02:01:54;0.00;0.00;0.62;0.00;0.00;0.62;1.70;1.00;;;23.50;20.40;;;;;;2050864;62;20467;-65
2024/04/19 02:04:40;0.00;0.00;0.62;0.00;0.00;0.62;2.30;1.00;;;23.50;20.40;;;;;;2051844;62;20531;-65
2024/04/19 02:07:24;0.00;0.00;0.62;0.00;0.00;0.62;2.20;1.17;;;23.50;20.80;;;;;;2049669;62;20450;-65
2024/04/19 02:10:09;0.00;0.00;0.62;0.00;0.00;0.62;1.70;0.90;;;23.50;20.30;;;;;;2050076;62;20479;-65
2024/04/19 02:12:54;0.00;0.00;0.62;0.00;0.00;0.62;3.60;1.47;;;23.50;20.30;;;;;;2051871;62;21062;-65
2024/04/19 02:15:38;0.00;0.00;0.62;0.00;0.00;0.62;2.40;1.07;;;23.50;20.30;;;;;;2051830;62;20479;-66
2024/04/19 02:18:26;0.00;0.00;0.62;0.00;0.00;0.62;1.70;1.00;;;23.50;20.30;;;;;;2052026;62;20483;-65
2024/04/19 02:21:11;0.00;0.00;0.62;0.00;0.00;0.62;1.80;1.10;;;23.50;20.30;;;;;;2051548;62;20596;-65
2024/04/19 02:23:55;0.00;0.00;0.62;0.00;0.00;0.62;1.93;1.10;;;23.50;20.30;;;;;;2051700;62;20482;-64
2024/04/19 02:26:40;0.00;0.00;0.62;0.00;0.00;0.62;1.80;0.97;;;23.50;20.30;;;;;;2052042;62;20458;-65
2024/04/19 02:32:29;0.00;0.00;0.62;0.00;0.00;0.62;1.70;0.90;;;23.50;20.30;;;;;;2051317;62;20489;-65
2024/04/19 02:35:16;0.00;0.00;0.62;0.00;0.00;0.62;2.13;1.10;;;23.50;20.30;;;;;;2051744;62;20472;-65
2024/04/19 02:38:00;0.00;0.00;0.62;0.00;0.00;0.62;2.40;1.20;;;23.40;20.30;;;;;;2051871;62;20532;-65
2024/04/19 02:40:45;0.00;0.00;0.62;0.00;0.00;0.62;3.67;1.03;;;23.40;20.30;;;;;;2051794;62;20516;-64
2024/04/19 02:43:30;0.00;0.00;0.62;0.00;0.00;0.62;2.63;1.43;;;23.40;20.30;;;;;;2051705;62;20962;-64
2024/04/19 02:46:18;0.00;0.00;0.62;0.00;0.00;0.62;2.60;1.03;;;23.40;20.30;;;;;;2051301;62;20462;-64
2024/04/19 02:49:03;0.00;0.00;0.62;0.00;0.00;0.62;1.90;0.90;;;23.40;20.30;;;;;;2051825;62;20465;-64
2024/04/19 02:51:50;0.00;0.00;0.62;0.00;0.00;0.62;1.87;0.90;;;23.40;20.30;;;;;;2051588;62;20483;-64
2024/04/19 02:54:34;0.00;0.00;0.62;0.00;0.00;0.62;2.17;0.90;;;23.40;20.30;;;;;;2051371;62;20478;-65
2024/04/19 02:57:19;0.00;0.00;0.62;0.00;0.00;0.62;1.53;1.00;;;23.40;20.30;;;;;;2051480;62;20528;-64
2024/04/19 03:00:06;0.00;0.00;0.62;0.00;0.00;0.62;5.13;0.87;;;23.40;20.30;;;;;;2051649;62;20513;-65
2024/04/19 03:03:02;0.00;0.00;0.62;0.00;0.00;0.62;1.97;0.90;;;23.40;20.40;;;;;;2046858;62;20851;-64
2024/04/19 03:05:46;0.00;0.00;0.62;0.00;0.00;0.62;2.50;0.90;;;23.40;20.40;;;;;;2046444;62;20489;-63
2024/04/19 03:08:34;0.00;0.00;0.62;0.00;0.00;0.62;2.57;1.20;;;23.30;20.30;;;;;;2047726;62;20506;-65
2024/04/19 03:11:19;0.00;0.00;0.62;0.00;0.00;0.62;1.67;0.97;;;23.30;20.30;;;;;;2051817;62;20462;-64
2024/04/19 03:14:03;0.00;0.00;0.62;0.00;0.00;0.62;1.50;0.80;;;23.30;20.30;;;;;;2051649;62;20543;-65
2024/04/19 03:16:50;0.00;0.00;0.62;0.00;0.00;0.62;2.63;1.00;;;23.30;20.30;;;;;;2051195;62;20524;-64
2024/04/19 03:19:55;0.00;0.00;0.62;0.00;0.00;0.62;2.17;1.17;;;23.30;20.40;;;;;;2051510;54;20798;-65
2024/04/19 03:22:40;0.00;0.00;0.62;0.00;0.00;0.62;2.70;1.00;;;23.30;20.40;;;;;;2051110;62;20471;-64
2024/04/19 03:25:27;0.00;0.00;0.62;0.00;0.00;0.62;1.40;0.80;;;23.30;20.40;;;;;;2051752;62;20541;-64
2024/04/19 03:28:12;0.00;0.00;0.62;0.00;0.00;0.62;1.70;0.80;;;23.30;20.40;;;;;;2051546;62;21066;-64
2024/04/19 03:30:56;0.00;0.00;0.62;0.00;0.00;0.62;2.07;0.80;;;23.30;20.50;;;;;;2048865;62;20492;-64
2024/04/19 03:33:41;0.00;0.00;0.62;0.00;0.00;0.62;1.40;0.80;;;23.30;20.50;;;;;;2051902;62;20482;-65
2024/04/19 03:36:25;0.00;0.00;0.62;0.00;0.00;0.62;2.27;1.00;;;23.30;20.50;;;;;;2051521;62;20553;-65
2024/04/19 03:39:10;0.00;0.00;0.62;0.00;0.00;0.62;1.70;1.00;;;23.30;20.50;;;;;;2050962;62;20462;-65
2024/04/19 03:41:57;0.00;0.00;0.62;0.00;0.00;0.62;1.57;0.93;;;23.30;20.50;;;;;;2051461;62;20478;-65
2024/04/19 03:47:45;0.00;0.00;0.62;0.00;0.00;0.62;2.07;0.90;;;23.20;20.50;;;;;;2051820;62;20596;-65
2024/04/19 03:50:30;0.00;0.00;0.62;0.00;0.00;0.62;1.87;1.10;;;23.20;21.00;;;;;;2051215;62;20530;-64
2024/04/19 03:53:15;0.00;0.00;0.62;0.00;0.00;0.62;1.90;1.00;;;23.20;20.40;;;;;;2051025;62;20466;-64
2024/04/19 03:55:59;0.00;0.00;0.62;0.00;0.00;0.62;1.80;1.00;;;23.20;20.40;;;;;;2046359;62;20460;-64
2024/04/19 03:58:47;0.00;0.00;0.62;0.00;0.00;0.62;1.70;1.37;;;23.20;20.40;;;;;;2046308;62;20499;-64
2024/04/19 04:01:31;0.00;0.00;0.62;0.00;0.00;0.62;1.90;1.10;;;23.20;20.40;;;;;;2050136;62;20478;-64
2024/04/19 04:04:16;0.00;0.00;0.62;0.00;0.00;0.62;1.60;1.00;;;23.20;20.40;;;;;;2049975;62;20956;-64
2024/04/19 04:07:01;0.00;0.00;0.62;0.00;0.00;0.62;2.40;1.20;;;23.20;20.40;;;;;;2051231;62;20458;-64
2024/04/19 04:09:45;0.00;0.00;0.62;0.00;0.00;0.62;2.90;1.10;;;23.20;20.50;;;;;;2051634;62;20470;-64
2024/04/19 04:12:32;0.00;0.00;0.62;0.00;0.00;0.62;3.00;1.17;;;23.20;20.50;;;;;;2050242;62;20478;-64
2024/04/19 04:15:19;0.00;0.00;0.62;0.00;0.00;0.62;2.30;1.10;;;23.10;20.40;;;;;;2051510;62;20526;-65
2024/04/19 04:18:05;0.00;0.00;0.62;0.00;0.00;0.62;2.93;1.20;;;23.10;20.40;;;;;;2052331;62;20471;-63
2024/04/19 04:20:50;0.00;0.00;0.62;0.00;0.00;0.62;2.30;1.40;;;23.10;20.50;;;;;;2051916;62;20459;-64
2024/04/19 04:23:34;0.00;0.00;0.62;0.00;0.00;0.62;2.57;1.33;;;23.20;20.50;;;;;;2051592;62;20513;-64
2024/04/19 04:26:19;0.00;0.00;0.62;0.00;0.00;0.62;1.60;1.10;;;23.10;20.50;;;;;;2052027;62;20891;-64
2024/04/19 04:29:04;0.00;0.00;0.62;0.00;0.00;0.62;2.23;1.20;;;23.10;20.50;;;;;;2051881;62;20473;-65
2024/04/19 04:31:51;0.00;0.00;0.62;0.00;0.00;0.62;2.40;1.33;;;23.10;20.50;;;;;;2047130;62;20472;-64
2024/04/19 04:34:36;0.00;0.00;0.62;0.00;0.00;0.62;1.77;1.07;;;23.10;20.50;;;;;;2046868;62;20522;-65
2024/04/19 04:37:21;0.00;0.00;0.62;0.00;0.00;0.62;2.90;1.30;;;23.10;20.50;;;;;;2048107;62;20870;-64
2024/04/19 04:40:07;0.00;0.00;0.62;0.00;0.00;0.62;1.50;0.90;;;23.10;20.50;;;;;;2052106;62;20489;-64
2024/04/19 04:42:52;0.00;0.00;0.62;0.00;0.00;0.62;3.30;1.47;;;23.10;20.50;;;;;;2051888;62;20483;-65
2024/04/19 04:45:37;0.00;0.00;0.62;0.00;0.00;0.62;3.77;1.23;;;23.10;20.50;;;;;;2051427;62;20529;-65
2024/04/19 04:48:24;0.00;0.00;0.62;0.00;0.00;0.62;1.60;1.00;;;23.00;20.40;;;;;;2051761;62;20462;-65
2024/04/19 04:51:09;0.00;0.00;0.62;0.00;0.00;0.62;1.60;1.00;;;23.00;20.40;;;;;;2051738;62;21074;-64
2024/04/19 04:53:54;0.00;0.00;0.62;0.00;0.00;0.62;1.40;0.80;;;23.10;20.50;;;;;;2052226;62;20510;-65
2024/04/19 04:56:39;0.00;0.00;0.62;0.00;0.00;0.62;1.80;1.27;;;23.00;20.40;;;;;;2047687;62;20470;-65
2024/04/19 04:59:23;0.00;0.00;0.62;0.00;0.00;0.62;2.13;1.27;;;23.00;20.40;;;;;;2051079;62;20474;-64
2024/04/19 05:02:08;0.00;0.00;0.62;0.00;0.00;0.62;1.80;1.10;;;23.00;20.40;;;;;;2052181;62;20462;-64
2024/04/19 05:04:55;0.00;0.00;0.62;0.00;0.00;0.62;1.90;1.47;;;23.00;20.50;;;;;;2051851;62;20458;-65
2024/04/19 05:07:40;0.00;0.00;0.62;0.00;0.00;0.62;2.90;1.50;;;23.00;20.50;;;;;;2051340;62;20513;-65
2024/04/19 05:10:25;0.00;0.00;0.62;0.00;0.00;0.62;2.97;1.73;;;23.00;20.50;;;;;;2049974;62;20455;-66
2024/04/19 05:13:10;0.00;0.00;0.62;0.00;0.00;0.62;2.17;1.37;;;23.00;20.50;;;;;;2052030;62;20478;-65
2024/04/19 05:15:54;0.00;0.00;0.62;0.00;0.00;0.62;2.20;1.57;;;23.00;20.50;;;;;;2051606;62;20483;-65
2024/04/19 05:18:39;0.00;0.00;0.62;0.00;0.00;0.62;3.57;2.40;;;22.90;20.50;;;;;;2051907;62;20864;-65
2024/04/19 05:21:26;0.00;0.00;0.62;0.00;0.00;0.62;3.57;2.20;;;23.00;20.50;;;;;;2051064;62;20571;-65
2024/04/19 05:24:10;0.00;0.00;0.62;0.00;0.00;0.62;3.43;1.93;;;22.90;20.50;;;;;;2051076;62;20474;-65
2024/04/19 05:26:56;0.00;0.00;0.62;0.00;0.00;0.62;2.93;1.77;;;22.90;20.50;;;;;;2050864;62;20509;-65
2024/04/19 05:29:41;0.00;0.00;0.62;0.00;0.00;0.62;2.50;1.93;;;22.90;20.50;;;;;;2051091;62;20528;-65
2024/04/19 05:32:26;0.00;0.00;0.62;0.00;0.00;0.62;3.70;2.23;;;22.90;20.50;;;;;;2051993;62;20499;-65
2024/04/19 05:35:11;0.00;0.00;0.62;0.00;0.00;0.62;3.10;2.00;;;22.90;20.50;;;;;;2046808;62;20543;-65
2024/04/19 05:37:58;0.00;0.00;0.62;0.00;0.00;0.62;2.30;1.80;;;22.90;20.50;;;;;;2051517;62;20588;-64
2024/04/19 05:40:43;0.00;0.00;0.62;0.00;0.00;0.62;2.70;1.87;;;22.90;20.50;;;;;;2051633;62;20474;-65
2024/04/19 05:43:27;0.00;0.00;0.62;0.00;0.00;0.62;2.90;2.00;;;22.90;20.50;;;;;;2051415;62;20448;-65
2024/04/19 05:46:12;0.00;0.00;0.62;0.00;0.00;0.62;2.97;1.50;;;22.90;20.60;;;;;;2052152;62;20459;-65
2024/04/19 05:48:56;0.00;0.00;0.62;0.00;0.00;0.62;5.00;1.80;;;22.90;20.60;;;;;;2051779;62;20962;-64
2024/04/19 05:51:41;0.00;0.00;0.62;0.00;0.00;0.62;2.70;1.87;;;22.90;20.60;;;;;;2051337;62;20479;-64
2024/04/19 05:54:29;0.00;0.00;0.62;0.00;0.00;0.62;2.60;1.50;;;22.90;20.60;;;;;;2052204;62;20508;-65
2024/04/19 05:57:15;0.00;0.00;0.62;0.00;0.00;0.62;2.33;1.50;;;22.80;20.60;;;;;;2051885;62;20470;-64
2024/04/19 05:59:59;0.00;0.00;0.62;0.00;0.00;0.62;2.90;1.87;;;22.80;20.50;;;;;;2051302;62;20522;-64
2024/04/19 06:02:44;0.00;0.00;0.62;0.00;0.00;0.62;2.53;1.97;;;22.80;20.60;;;;;;2051947;62;20598;-65
2024/04/19 06:05:29;0.00;0.00;0.62;0.00;0.00;0.62;3.00;1.93;;;22.80;20.60;;;;;;2047326;62;20466;-65
2024/04/19 06:08:14;0.00;0.00;0.62;0.00;0.00;0.62;3.27;2.23;;;22.80;20.70;;;;;;2052019;62;20526;-65
2024/04/19 06:11:01;0.00;0.00;0.62;0.00;0.00;0.62;3.93;2.27;;;22.80;20.70;;;;;;2051463;62;20455;-64
2024/04/19 06:13:47;0.00;0.00;0.62;0.00;0.00;0.62;3.90;2.70;;;22.80;20.70;;;;;;2051656;62;20872;-65
2024/04/19 06:16:32;0.00;0.00;0.62;0.00;0.00;0.62;2.97;2.10;;;22.80;20.70;;;;;;2051981;62;20858;-65
2024/04/19 06:19:16;0.00;0.00;0.62;0.00;0.00;0.62;3.57;2.10;;;22.80;20.70;;;;;;2051892;62;20516;-65
2024/04/19 06:22:01;0.00;0.00;0.62;0.00;0.00;0.62;3.30;2.10;;;22.80;20.70;;;;;;2051307;62;20466;-64
2024/04/19 06:24:47;0.00;0.00;0.62;0.00;0.00;0.62;3.13;2.30;;;22.80;20.70;;;;;;2051639;62;21098;-64
2024/04/19 06:27:34;0.00;0.00;0.62;0.00;0.00;0.62;3.07;2.40;;;22.80;20.70;;;;;;2050024;62;20561;-65
2024/04/19 06:30:19;0.00;0.00;0.62;0.00;0.00;0.62;3.87;2.63;;;22.70;20.60;;;;;;2044723;62;20468;-64
2024/04/19 06:33:04;0.00;0.00;0.62;0.00;0.00;0.62;3.90;2.47;;;22.70;20.60;;;;;;2046291;62;20553;-65
2024/04/19 06:35:49;0.00;0.00;0.62;0.00;0.00;0.62;5.27;3.30;;;22.70;20.60;;;;;;2044101;62;20486;-64
2024/04/19 06:38:35;0.00;0.00;0.62;0.00;0.00;0.62;3.53;2.60;;;22.70;20.60;;;;;;2051987;62;20542;-63
2024/04/19 06:41:20;0.00;0.00;0.62;0.00;0.00;0.62;4.10;2.90;;;22.70;21.20;;;;;;2051382;62;20493;-64
2024/04/19 06:44:07;0.00;0.00;0.62;0.00;0.00;0.62;4.23;2.83;;;22.70;20.70;;;;;;2051459;62;20467;-65
2024/04/19 06:46:52;0.00;0.00;0.62;0.00;0.00;0.62;3.70;2.80;;;22.70;20.60;;;;;;2051680;62;20528;-64
2024/04/19 06:49:36;0.00;0.00;0.62;0.00;0.00;0.62;3.60;2.97;;;22.70;20.60;;;;;;2051379;62;20509;-65
2024/04/19 06:52:22;0.00;0.00;0.62;0.00;0.00;0.62;4.07;2.93;;;22.70;20.60;;;;;;2052007;62;20485;-64
2024/04/19 06:55:07;0.00;0.00;0.62;0.00;0.00;0.62;2.97;2.40;;;22.70;20.60;;;;;;2051603;62;20455;-64
2024/04/19 06:57:55;0.00;0.00;0.62;0.00;0.00;0.62;3.90;2.50;;;22.70;20.60;;;;;;2051143;62;20471;-64
2024/04/19 07:00:43;0.00;0.00;0.62;0.00;0.00;0.62;3.30;2.03;;;22.70;20.70;;;;;;2051782;62;20524;-64
2024/04/19 07:03:28;0.00;0.00;0.62;0.00;0.00;0.62;3.50;2.07;;;22.60;20.50;;;;;;2051800;62;20926;-64
2024/04/19 07:06:14;0.00;0.00;0.62;0.00;0.00;0.62;3.17;1.97;;;22.60;20.50;;;;;;2051374;62;20512;-64
2024/04/19 07:08:59;0.00;0.00;0.62;0.00;0.00;0.62;2.43;1.70;;;22.60;20.60;;;;;;2051625;62;20459;-65
2024/04/19 07:11:45;0.00;0.00;0.62;0.00;0.00;0.62;2.67;1.77;;;22.60;20.50;;;;;;2051857;62;20855;-65
2024/04/19 07:14:30;0.00;0.00;0.62;0.00;0.00;0.62;2.30;1.60;;;22.60;20.50;;;;;;2052172;62;20462;-64
2024/04/19 07:17:17;0.00;0.00;0.62;0.00;0.00;0.62;2.20;1.57;;;22.60;20.50;;;;;;2051586;62;20906;-64
2024/04/19 07:20:02;0.00;0.00;0.62;0.00;0.00;0.62;1.97;1.60;;;22.60;20.60;;;;;;2051036;62;20474;-64
2024/04/19 07:22:47;0.00;0.00;0.62;0.00;0.00;0.62;1.70;1.00;;;22.60;20.60;;;;;;2051883;62;21046;-64
2024/04/19 07:25:31;0.00;0.00;0.62;0.00;0.00;0.62;1.87;1.23;;;22.60;20.60;;;;;;2051621;62;20467;-64
2024/04/19 07:28:16;0.00;0.00;0.62;0.00;0.00;0.62;2.23;1.60;;;22.60;20.60;;;;;;2051164;62;20504;-64
2024/04/19 07:31:01;0.00;0.00;0.62;0.00;0.00;0.62;2.10;1.60;;;22.60;20.50;;;;;;2051707;62;20528;-64
2024/04/19 07:33:49;0.00;0.00;0.62;0.00;0.00;0.62;1.90;1.20;;;22.60;20.60;;;;;;2051767;62;20947;-64
2024/04/19 07:36:34;0.00;0.00;0.62;0.00;0.00;0.62;2.03;1.30;;;22.50;20.50;;;;;;2052679;62;20465;-64
2024/04/19 07:39:18;0.00;0.00;0.62;0.00;0.00;0.62;3.43;1.33;;;22.50;20.50;;;;;;2056750;62;20522;-65
2024/04/19 07:42:03;0.00;0.00;0.62;0.00;0.00;0.62;2.43;1.57;;;22.50;20.50;;;;;;2055078;62;20463;-64
2024/04/19 07:44:48;0.00;0.00;0.62;0.00;0.00;0.62;1.90;1.10;;;22.50;20.50;;;;;;2047094;62;20492;-64
2024/04/19 07:47:32;0.00;0.00;0.62;0.00;0.00;0.62;1.80;1.00;;;22.50;20.50;;;;;;2046790;62;20476;-64
2024/04/19 07:50:20;0.00;0.00;0.62;0.00;0.00;0.62;2.13;1.50;;;22.50;20.50;;;;;;2048901;62;20528;-64
2024/04/19 07:53:05;0.00;0.00;0.62;0.00;0.00;0.62;1.60;1.00;;;22.50;20.50;;;;;;2052409;54;20584;-64
2024/04/19 07:55:49;0.00;0.00;0.62;0.00;0.00;0.62;1.87;1.10;;;22.50;20.50;;;;;;2052167;62;20516;-64
2024/04/19 07:58:34;0.00;0.00;0.62;0.00;0.00;0.62;1.80;1.20;;;22.50;20.50;;;;;;2051571;62;20462;-64
2024/04/19 08:01:18;0.00;0.00;0.62;0.00;0.00;0.62;1.83;1.00;;;22.50;20.60;;;;;;2051819;62;20864;-64
2024/04/19 08:04:04;0.00;0.00;0.62;0.00;0.00;0.62;2.10;1.10;;;22.50;20.70;;;;;;2051527;62;20938;-65
2024/04/19 08:06:51;0.00;0.00;0.62;0.00;0.00;0.62;1.87;1.30;;;22.50;20.70;;;;;;2052091;62;20532;-64
2024/04/19 08:09:36;0.00;0.00;0.62;0.00;0.00;0.62;1.53;0.90;;;22.50;20.70;;;;;;2051656;62;20524;-64
2024/04/19 08:12:20;0.00;0.00;0.62;0.00;0.00;0.62;2.37;1.10;;;22.50;20.80;;;;;;2051272;62;20527;-65
2024/04/19 08:15:07;0.00;0.00;0.62;0.00;0.00;0.62;1.90;1.30;;;22.50;20.80;;;;;;2052284;62;20471;-64
2024/04/19 08:17:52;0.00;0.00;0.62;0.00;0.00;0.62;2.10;1.20;;;22.50;20.80;;;;;;2052070;62;20466;-64
2024/04/19 08:20:36;0.00;0.00;0.62;0.00;0.00;0.62;2.13;1.27;;;22.40;20.80;;;;;;2051463;62;20561;-64
2024/04/19 08:23:25;0.00;0.00;0.62;0.00;0.00;0.62;2.40;1.30;;;22.40;21.30;;;;;;2047752;62;20540;-65
2024/04/19 08:26:10;0.00;0.00;0.62;0.00;0.00;0.62;2.63;1.63;;;22.40;20.80;;;;;;2051443;62;20541;-64
2024/04/19 08:28:54;0.00;0.00;0.62;0.00;0.00;0.62;3.17;1.87;;;22.40;20.90;;;;;;2052241;62;20462;-65
2024/04/19 08:31:41;0.00;0.00;0.62;0.00;0.00;0.62;4.50;2.00;;;22.40;20.90;;;;;;2051601;62;20466;-65
2024/04/19 08:34:26;0.00;0.00;0.62;0.00;0.00;0.62;6.83;1.80;;;22.40;21.40;;;;;;2051426;62;20551;-64
2024/04/19 08:37:10;0.00;0.00;0.62;0.00;0.00;0.62;3.57;1.80;;;22.50;21.00;;;;;;2052237;62;20470;-64
2024/04/19 08:39:59;0.00;0.00;0.62;0.00;0.00;0.62;2.93;1.90;;;22.50;21.00;;;;;;2051624;62;20454;-64
2024/04/19 08:42:44;0.00;0.00;0.62;0.00;0.00;0.62;3.23;1.50;;;22.40;21.00;;;;;;2051770;62;20515;-65
2024/04/19 08:45:30;0.00;0.00;0.62;0.00;0.00;0.62;3.70;2.13;;;22.40;21.00;;;;;;2051923;62;20467;-65
2024/04/19 08:48:15;0.00;0.00;0.62;0.00;0.00;0.62;2.10;1.50;;;22.40;21.10;;;;;;2051332;62;20461;-63
2024/04/19 08:51:01;0.00;0.00;0.62;0.00;0.00;0.62;2.70;1.90;;;22.50;21.10;;;;;;2052032;62;20462;-64
2024/04/19 08:53:48;0.00;0.00;0.62;0.00;0.00;0.62;2.80;1.80;;;22.40;21.10;;;;;;2051900;62;20479;-64
2024/04/19 08:56:38;0.00;0.00;0.62;0.00;0.00;0.62;3.40;2.10;;;22.50;21.20;;;;;;2051359;62;20494;-63
2024/04/19 08:59:23;0.00;0.00;0.62;0.00;0.00;0.62;3.47;2.20;;;22.40;21.10;;;;;;2052166;62;20898;-65
2024/04/19 09:02:08;0.00;0.00;0.62;0.00;0.00;0.62;2.53;1.60;;;22.50;21.20;;;;;;2051937;62;20583;-65
2024/04/19 09:04:52;0.00;0.00;0.62;0.00;0.00;0.62;2.70;2.00;;;22.50;21.30;;;;;;2051665;62;20982;-64
2024/04/19 09:07:40;0.00;0.00;0.62;0.00;0.00;0.62;3.33;2.03;;;22.50;21.30;;;;;;2051943;62;20491;-64
2024/04/19 09:10:25;0.00;0.00;0.62;0.00;0.00;0.62;2.80;1.93;;;22.50;21.30;;;;;;2051213;62;20928;-65
2024/04/19 09:13:12;0.00;0.00;0.62;0.00;0.00;0.62;3.80;2.30;;;22.50;21.30;;;;;;2052239;62;20557;-64
2024/04/19 09:15:57;0.00;0.00;0.62;0.00;0.00;0.62;2.80;2.00;;;22.50;21.40;;;;;;2051792;62;20527;-64
2024/04/19 09:18:49;0.00;0.00;0.62;0.00;0.00;0.62;2.50;1.70;;;22.50;21.40;;;;;;2051482;62;21008;-64
2024/04/19 09:21:34;0.00;0.00;0.62;0.00;0.00;0.62;2.33;1.80;;;22.50;21.40;;;;;;2051960;62;20497;-64
2024/04/19 09:24:18;0.00;0.00;0.62;0.00;0.00;0.62;2.50;1.70;;;22.50;21.40;;;;;;2051972;62;20471;-64
2024/04/19 09:27:04;0.00;0.00;0.62;0.00;0.00;0.62;3.00;2.10;;;22.50;22.00;;;;;;2051571;62;21039;-64
2024/04/19 09:29:51;0.00;0.00;0.62;0.00;0.00;0.62;2.97;2.07;;;22.50;21.50;;;;;;2047361;62;20507;-64
2024/04/19 09:32:36;0.00;0.00;0.62;0.00;0.00;0.62;2.40;1.57;;;22.50;21.50;;;;;;2051357;62;20509;-65
2024/04/19 09:35:25;0.00;0.00;0.62;0.00;0.00;0.62;2.17;1.63;;;22.50;21.50;;;;;;2052079;62;20466;-64
2024/04/19 09:38:10;0.00;0.00;0.62;0.00;0.00;0.62;3.00;2.00;;;22.50;21.50;;;;;;2051746;62;20527;-65
2024/04/19 09:40:55;0.00;0.00;0.62;0.00;0.00;0.62;3.20;2.13;;;22.60;21.60;;;;;;2051286;62;20505;-65
2024/04/19 09:43:45;0.00;0.00;0.62;0.00;0.00;0.62;4.97;2.53;;;22.60;21.70;;;;;;2052059;62;20474;-64
2024/04/19 09:46:38;0.00;0.00;0.62;0.00;0.00;0.62;2.80;1.90;;;22.60;21.70;;;;;;2051807;62;21070;-65
2024/04/19 09:49:28;0.00;0.00;0.62;0.00;0.00;0.62;2.90;2.37;;;22.60;21.70;;;;;;2047158;62;20470;-65
2024/04/19 09:52:20;0.00;0.00;0.62;0.00;0.00;0.62;3.73;2.70;;;22.60;21.80;;;;;;2051771;62;20455;-64
2024/04/19 09:55:10;0.00;0.00;0.62;0.00;0.00;0.62;2.73;2.03;;;22.60;21.80;;;;;;2050397;62;20537;-65
2024/04/19 09:57:55;0.00;0.00;0.62;0.00;0.00;0.62;3.53;2.90;;;22.60;21.80;;;;;;2049858;62;20466;-65
2024/04/19 10:00:41;0.00;0.00;0.62;0.00;0.00;0.62;5.17;3.47;;;22.60;21.90;;;;;;2051683;62;20463;-65
2024/04/19 10:03:29;0.00;0.00;0.62;0.00;0.00;0.62;6.03;3.43;;;22.60;21.90;;;;;;2051251;62;20467;-65
2024/04/19 10:06:15;0.00;0.00;0.62;0.00;0.00;0.62;4.97;4.17;;;22.60;21.90;;;;;;2051943;62;21003;-64
2024/04/19 10:09:00;0.00;0.00;0.62;0.00;0.00;0.62;4.87;4.07;;;22.70;22.00;;;;;;2051989;62;20524;-64
2024/04/19 10:11:48;0.00;0.00;0.62;0.00;0.00;0.62;4.23;3.53;;;22.60;21.90;;;;;;2051243;62;20544;-64
2024/04/19 10:14:34;0.00;0.00;0.62;0.00;0.00;0.62;5.80;4.17;;;22.70;22.00;;;;;;2051811;62;20516;-63
2024/04/19 10:17:19;0.00;0.00;0.62;0.00;0.00;0.62;4.53;4.00;;;22.70;22.60;;;;;;2051340;62;20516;-64
2024/04/19 10:20:09;0.00;0.00;0.62;0.00;0.00;0.62;6.27;4.77;;;22.70;22.10;;;;;;2051761;62;20446;-64
2024/04/19 10:22:54;0.00;0.00;0.62;0.00;0.00;0.62;7.00;5.13;;;22.70;22.10;;;;;;2051669;62;20975;-64
2024/04/19 10:25:38;0.00;0.00;0.62;0.00;0.00;0.62;4.73;3.90;;;22.70;22.10;;;;;;2051372;62;20898;-64
2024/04/19 10:28:23;0.00;0.00;0.62;0.00;0.00;0.62;6.20;5.13;;;22.70;22.10;;;;;;2051787;62;20467;-64
2024/04/19 10:31:09;0.00;0.00;0.62;0.00;0.00;0.62;7.30;5.10;;;22.70;22.10;;;;;;2051830;62;20485;-64
2024/04/19 10:33:53;0.00;0.00;0.62;0.00;0.00;0.62;5.83;4.73;;;22.70;22.10;;;;;;2051481;62;20462;-64
2024/04/19 10:36:41;0.00;0.00;0.62;0.00;0.00;0.62;5.70;4.80;;;22.70;22.10;;;;;;2050857;62;20491;-64
2024/04/19 10:39:26;0.00;0.00;0.62;0.00;0.00;0.62;5.10;3.73;;;22.70;22.20;;;;;;2050013;62;20467;-65
2024/04/19 10:42:12;0.00;0.00;0.62;0.00;0.00;0.62;6.00;4.60;;;22.70;22.20;;;;;;2052644;62;20471;-63
2024/04/19 10:44:57;0.00;0.00;0.62;0.00;0.00;0.62;6.97;4.97;;;22.70;22.20;;;;;;2051569;62;20871;-65
2024/04/19 10:47:42;0.00;0.00;0.62;0.00;0.00;0.62;6.50;5.43;;;22.70;22.20;;;;;;2049779;62;20462;-64
2024/04/19 10:50:27;0.00;0.00;0.62;0.00;0.00;0.62;5.90;5.17;;;22.70;22.20;;;;;;2050113;62;20539;-66
2024/04/19 10:53:17;0.00;0.00;0.62;0.00;0.00;0.62;6.17;4.83;;;22.70;22.20;;;;;;2051775;62;20506;-65
2024/04/19 10:56:01;0.00;0.00;0.62;0.00;0.00;0.62;6.87;5.00;;;22.70;22.30;;;;;;2051504;62;20993;-65
2024/04/19 10:58:48;0.00;0.00;0.62;0.00;0.00;0.62;5.87;5.27;;;22.80;22.30;;;;;;2051689;62;20463;-64
2024/04/19 11:01:33;0.00;0.00;0.62;0.00;0.00;0.62;6.03;4.60;;;22.80;22.30;;;;;;2051186;62;20462;-64